Time;durP1;ratioP1;P1;durP2;ratioP2;P2;SDS_P1;SDS_P2;PMS_P1;PMS_P2;Temp;Humidity;BMP_temperature;BMP_pressure;BME280_temperature;BME280_humidity;BME280_pressure;Samples;Min_cycle;Max_cycle;Signal;HPM_P1;HPM_P2
2022/01/04 00:01:20;;;;;;;21.03;9.40;;;;;;;7.57;89.92;100070.94;5050461;28;20288;-74
2022/01/04 00:03:45;;;;;;;16.87;9.20;;;;;;;7.52;90.13;100070.00;5051767;28;20190;-74
2022/01/04 00:06:11;;;;;;;19.90;9.80;;;;;;;7.47;90.10;100052.91;5051516;28;20233;-74
2022/01/04 00:08:37;;;;;;;16.37;9.57;;;;;;;7.43;90.84;100053.66;5052516;28;20223;-74
2022/01/04 00:11:32;;;;;;;20.93;9.10;;;;;;;7.40;90.79;100057.03;5051608;28;20192;-74
2022/01/04 00:13:52;;;;;;;17.37;8.97;;;;;;;7.41;90.34;100056.19;5050104;28;20198;-74
2022/01/04 00:16:18;;;;;;;18.40;9.50;;;;;;;7.45;90.12;100052.88;5051528;28;20220;-74
2022/01/04 00:18:46;;;;;;;20.13;9.67;;;;;;;7.38;90.17;100045.94;5051388;28;20655;-74
2022/01/04 00:21:11;;;;;;;18.23;9.20;;;;;;;7.34;90.37;100044.19;5050554;28;20277;-74
2022/01/04 00:23:37;;;;;;;16.60;9.63;;;;;;;7.33;90.18;100039.88;5052099;28;20722;-75
2022/01/04 00:26:03;;;;;;;22.57;10.83;;;;;;;7.31;90.82;100040.69;5049993;28;20299;-74
2022/01/04 00:28:28;;;;;;;21.13;10.30;;;;;;;7.28;90.34;100040.66;5052389;28;20276;-74
2022/01/04 00:30:54;;;;;;;20.10;10.70;;;;;;;7.29;90.12;100032.19;5051419;28;20189;-74
2022/01/04 00:33:19;;;;;;;20.73;9.90;;;;;;;7.23;90.00;100021.88;5050172;28;20197;-74
2022/01/04 00:35:45;;;;;;;21.10;10.63;;;;;;;7.21;90.19;100026.06;5051473;28;20209;-75
2022/01/04 00:38:11;;;;;;;18.47;10.10;;;;;;;7.25;90.38;100020.22;5053970;28;20214;-75
2022/01/04 00:40:37;;;;;;;17.47;9.73;;;;;;;7.24;90.44;100016.81;5071304;28;20181;-75
2022/01/04 00:43:04;;;;;;;17.27;9.53;;;;;;;7.13;90.45;100014.88;5071149;28;20642;-74
2022/01/04 00:45:35;;;;;;;19.40;10.03;;;;;;;7.10;90.79;100009.75;5071017;28;20197;-74
2022/01/04 00:50:28;;;;;;;17.47;9.67;;;;;;;7.07;90.70;100002.91;5069125;28;20276;-74
2022/01/04 00:52:54;;;;;;;22.50;9.60;;;;;;;7.09;90.64;100008.88;5071193;28;20221;-74
2022/01/04 00:55:20;;;;;;;20.43;10.00;;;;;;;7.09;90.94;100008.88;5071139;28;20285;-74
2022/01/04 00:57:45;;;;;;;17.83;9.57;;;;;;;7.11;91.12;100008.91;5069800;28;20270;-75
2022/01/04 01:00:13;;;;;;;23.93;10.60;;;;;;;7.15;91.24;100006.47;5054244;28;20204;-74
2022/01/04 01:02:38;;;;;;;21.07;10.80;;;;;;;7.16;91.28;100003.09;5050915;28;20651;-74
2022/01/04 01:05:05;;;;;;;18.30;10.60;;;;;;;7.20;90.30;99988.72;5050555;28;20216;-74
2022/01/04 01:07:30;;;;;;;22.30;9.77;;;;;;;7.23;90.53;99982.00;5050635;28;20194;-74
2022/01/04 01:10:14;;;;;;;19.57;9.77;;;;;;;7.25;90.52;99989.66;5050422;28;20197;-74
2022/01/04 01:12:40;;;;;;;18.30;9.37;;;;;;;7.34;90.65;99977.97;5049368;28;20185;-74
2022/01/04 01:15:06;;;;;;;15.77;9.20;;;;;;;7.35;90.88;99981.38;5052677;28;20311;-74
2022/01/04 01:17:32;;;;;;;18.30;9.93;;;;;;;7.35;90.67;99977.13;5070363;28;20228;-74
2022/01/04 01:19:58;;;;;;;16.57;9.57;;;;;;;7.38;90.65;99968.69;5070362;28;20280;-75
2022/01/04 01:22:23;;;;;;;21.93;9.57;;;;;;;7.40;91.22;99952.63;5070327;28;20185;-74
2022/01/04 01:24:49;;;;;;;21.63;10.17;;;;;;;7.42;90.73;99958.56;5070069;28;20204;-75
2022/01/04 01:27:14;;;;;;;24.57;10.37;;;;;;;7.46;90.34;99947.63;5070348;28;20658;-75
2022/01/04 01:29:40;;;;;;;16.20;9.27;;;;;;;7.46;90.27;99950.16;5068018;28;20177;-75
2022/01/04 01:32:06;;;;;;;20.60;9.53;;;;;;;7.48;89.82;99945.97;5070004;28;20189;-75
2022/01/04 01:34:31;;;;;;;19.57;9.93;;;;;;;7.52;90.89;99941.78;5070123;28;20193;-75
2022/01/04 01:36:57;;;;;;;20.97;10.13;;;;;;;7.57;90.57;99942.72;5068740;28;20221;-75
2022/01/04 01:39:22;;;;;;;22.00;9.67;;;;;;;7.59;89.64;99939.34;5069827;28;20184;-74
2022/01/04 01:41:47;;;;;;;19.83;9.60;;;;;;;7.61;90.30;99944.47;5070070;28;20263;-74
2022/01/04 01:44:13;;;;;;;18.50;9.33;;;;;;;7.59;90.03;99938.47;5068293;28;20207;-74
2022/01/04 01:46:38;;;;;;;18.33;10.03;;;;;;;7.63;90.14;99925.84;5069982;28;20208;-74
2022/01/04 01:49:03;;;;;;;19.57;10.07;;;;;;;7.62;90.09;99925.81;5068668;28;20197;-74
2022/01/04 01:51:30;;;;;;;20.70;10.80;;;;;;;7.64;89.74;99921.59;5069887;28;20184;-74
2022/01/04 01:53:56;;;;;;;21.47;10.07;;;;;;;7.66;89.93;99925.03;5069797;28;20283;-74
2022/01/04 01:56:21;;;;;;;20.93;10.33;;;;;;;7.67;89.51;99916.53;5068431;28;20248;-75
2022/01/04 01:58:47;;;;;;;19.00;9.83;;;;;;;7.65;90.60;99918.22;5067827;28;20633;-74
2022/01/04 02:01:13;;;;;;;19.50;10.33;;;;;;;7.65;90.44;99913.97;5069428;28;20211;-74
2022/01/04 02:03:39;;;;;;;26.63;11.37;;;;;;;7.66;90.02;99897.00;5068330;28;20207;-75
2022/01/04 02:06:05;;;;;;;20.77;11.10;;;;;;;7.73;89.43;99906.44;5069463;28;20733;-74
2022/01/04 02:08:30;;;;;;;23.63;11.03;;;;;;;7.67;90.56;99902.13;5069095;28;20641;-75
2022/01/04 02:10:57;;;;;;;22.70;11.47;;;;;;;7.73;90.08;99894.56;5069709;28;20185;-74
2022/01/04 02:13:24;;;;;;;23.63;11.37;;;;;;;7.74;90.69;99895.44;5067623;28;20185;-74
2022/01/04 02:15:50;;;;;;;20.67;11.63;;;;;;;7.76;89.73;99888.66;5069484;28;20201;-75
2022/01/04 02:18:15;;;;;;;26.90;13.07;;;;;;;7.73;90.02;99884.38;5069098;28;20726;-75
2022/01/04 02:20:41;;;;;;;24.43;11.87;;;;;;;7.76;89.81;99889.53;5069387;28;20509;-74
2022/01/04 02:23:06;;;;;;;22.40;11.60;;;;;;;7.76;90.67;99881.88;5069384;28;20223;-75
2022/01/04 02:25:31;;;;;;;25.47;12.00;;;;;;;7.77;90.00;99875.06;5069536;28;20221;-75
2022/01/04 02:27:57;;;;;;;19.03;11.47;;;;;;;7.76;90.17;99878.47;5067168;28;20540;-74
2022/01/04 02:30:22;;;;;;;22.73;12.00;;;;;;;7.75;89.99;99872.53;5067598;28;20244;-74
2022/01/04 02:32:48;;;;;;;21.63;12.43;;;;;;;7.78;89.78;99876.81;5069383;28;20189;-75
2022/01/04 02:35:17;;;;;;;21.37;12.17;;;;;;;7.78;90.17;99876.81;5069198;28;20283;-74
2022/01/04 02:37:42;;;;;;;26.00;13.13;;;;;;;7.79;89.67;99858.13;5069200;28;20193;-75
2022/01/04 02:40:08;;;;;;;23.67;12.47;;;;;;;7.79;90.21;99845.41;5069151;28;20181;-75
2022/01/04 02:42:33;;;;;;;21.30;12.23;;;;;;;7.74;89.31;99845.31;5069339;28;20582;-75
2022/01/04 02:45:00;;;;;;;18.17;12.20;;;;;;;7.75;90.38;99838.53;5067249;28;20594;-75
2022/01/04 02:47:27;;;;;;;26.63;14.40;;;;;;;7.78;90.19;99841.97;5069305;28;20185;-75
2022/01/04 02:49:52;;;;;;;22.20;12.30;;;;;;;7.76;89.87;99838.56;5067769;28;20181;-75
2022/01/04 02:52:17;;;;;;;21.13;12.43;;;;;;;7.76;89.67;99838.56;5069214;28;20650;-74
2022/01/04 02:54:43;;;;;;;21.23;12.57;;;;;;;7.73;90.40;99825.78;5067510;28;20623;-74
2022/01/04 02:57:08;;;;;;;24.00;12.57;;;;;;;7.70;90.68;99827.44;5069305;28;20177;-74
2022/01/04 02:59:34;;;;;;;23.30;13.30;;;;;;;7.66;90.23;99829.09;5064459;28;20186;-74
2022/01/04 03:01:59;;;;;;;25.87;14.00;;;;;;;7.63;90.78;99829.03;5075502;28;20181;-75
2022/01/04 03:04:24;;;;;;;20.60;13.17;;;;;;;7.61;90.39;99827.31;5081759;28;20624;-75
2022/01/04 03:06:50;;;;;;;26.77;12.93;;;;;;;7.60;90.50;99830.69;5069013;28;20243;-74
2022/01/04 03:09:15;;;;;;;22.50;13.57;;;;;;;7.57;90.50;99817.91;5070888;28;20246;-74
2022/01/04 03:11:41;;;;;;;23.90;14.80;;;;;;;7.56;90.92;99811.94;5090240;28;20220;-74
2022/01/04 03:14:06;;;;;;;33.20;14.90;;;;;;;7.55;90.97;99812.78;5093057;28;20227;-74
2022/01/04 03:16:31;;;;;;;22.17;14.03;;;;;;;7.49;90.63;99799.97;5091657;28;20239;-74
2022/01/04 03:19:03;;;;;;;27.57;14.53;;;;;;;7.50;90.84;99794.03;5075236;28;20197;-74
2022/01/04 03:21:37;;;;;;;27.80;13.83;;;;;;;7.45;90.91;99787.16;5071269;28;20665;-74
2022/01/04 03:24:04;;;;;;;26.03;14.33;;;;;;;7.50;90.67;99782.97;5071189;28;20197;-74
2022/01/04 03:26:30;;;;;;;24.57;13.37;;;;;;;7.43;91.10;99788.81;5052726;28;20221;-75
2022/01/04 03:28:56;;;;;;;24.50;14.13;;;;;;;7.40;91.40;99781.13;5051096;28;20296;-75
2022/01/04 03:31:21;;;;;;;25.67;14.17;;;;;;;7.41;91.29;99777.78;5052481;28;20201;-74
2022/01/04 03:33:47;;;;;;;22.37;14.43;;;;;;;7.45;91.69;99764.22;5052399;28;20221;-74
2022/01/04 03:36:14;;;;;;;31.40;13.87;;;;;;;7.41;91.24;99758.25;5052246;28;20194;-75
2022/01/04 03:38:40;;;;;;;30.43;15.10;;;;;;;7.39;90.99;99753.97;5052265;28;20284;-75
2022/01/04 03:41:07;;;;;;;26.83;14.40;;;;;;;7.36;91.11;99764.09;5052411;28;20572;-75
2022/01/04 03:43:34;;;;;;;24.13;15.00;;;;;;;7.39;91.24;99759.94;5072198;28;20201;-75
2022/01/04 03:45:59;;;;;;;25.57;14.03;;;;;;;7.38;91.50;99755.63;5072105;28;20789;-74
2022/01/04 03:48:24;;;;;;;28.53;15.30;;;;;;;7.46;91.09;99763.41;5071936;28;20268;-74
2022/01/04 03:50:50;;;;;;;24.77;14.53;;;;;;;7.47;90.96;99747.28;5070627;28;20676;-74
2022/01/04 03:53:15;;;;;;;24.27;13.47;;;;;;;7.43;91.12;99743.84;5072032;28;20193;-74
2022/01/04 03:55:40;;;;;;;28.23;15.67;;;;;;;7.43;91.03;99746.41;5063897;28;20208;-74
2022/01/04 03:58:06;;;;;;;25.17;14.87;;;;;;;7.41;91.39;99745.50;5071296;28;20189;-75
2022/01/04 04:00:31;;;;;;;26.17;15.53;;;;;;;7.45;91.99;99747.28;5052411;28;20280;-75
2022/01/04 04:02:56;;;;;;;26.67;15.17;;;;;;;7.49;91.15;99736.28;5051799;28;20264;-74
2022/01/04 04:05:22;;;;;;;26.80;14.40;;;;;;;7.51;91.29;99739.69;5051578;28;20248;-74
2022/01/04 04:07:47;;;;;;;23.90;14.20;;;;;;;7.59;90.60;99739.78;5050404;28;20194;-74
2022/01/04 04:10:12;;;;;;;23.13;15.30;;;;;;;7.61;90.68;99733.06;5050492;28;20202;-75
2022/01/04 04:12:38;;;;;;;27.53;14.30;;;;;;;7.61;91.13;99722.88;5084208;28;20190;-74
2022/01/04 04:15:08;;;;;;;25.23;15.10;;;;;;;7.62;91.04;99722.88;5070633;28;20298;-75
2022/01/04 04:17:33;;;;;;;25.83;14.30;;;;;;;7.62;91.32;99717.78;5073543;28;20245;-74
2022/01/04 04:19:59;;;;;;;32.80;14.77;;;;;;;7.66;90.59;99719.53;5091693;28;20180;-74
2022/01/04 04:22:25;;;;;;;25.97;15.03;;;;;;;7.63;90.35;99708.44;5091763;28;20188;-75
2022/01/04 04:24:50;;;;;;;27.17;14.93;;;;;;;7.64;91.05;99698.28;5091610;28;20265;-75
2022/01/04 04:27:16;;;;;;;30.90;16.20;;;;;;;7.63;91.25;99705.91;5090268;28;20199;-74
2022/01/04 04:29:41;;;;;;;25.97;16.00;;;;;;;7.59;91.63;99689.72;5079497;28;20235;-74
2022/01/04 04:32:07;;;;;;;28.07;15.77;;;;;;;7.62;91.62;99689.78;5069581;28;20270;-75
2022/01/04 04:34:33;;;;;;;24.93;16.77;;;;;;;7.60;91.41;99686.34;5051337;28;20194;-74
2022/01/04 04:36:59;;;;;;;26.53;16.57;;;;;;;7.64;91.89;99687.25;5049936;28;20574;-74
2022/01/04 04:39:24;;;;;;;33.57;17.00;;;;;;;7.64;90.68;99687.25;5049823;28;20190;-74
2022/01/04 04:41:49;;;;;;;25.70;16.40;;;;;;;7.66;91.06;99675.38;5051142;28;20185;-74
2022/01/04 04:44:15;;;;;;;24.27;15.97;;;;;;;7.63;91.41;99671.09;5051095;28;20186;-74
2022/01/04 04:46:40;;;;;;;29.40;16.70;;;;;;;7.58;90.96;99671.88;5049552;28;20296;-74
2022/01/04 04:49:06;;;;;;;27.93;16.67;;;;;;;7.58;91.34;99670.19;5049501;28;20197;-74
2022/01/04 04:51:32;;;;;;;32.07;16.60;;;;;;;7.59;91.09;99664.25;5070556;28;20674;-74
2022/01/04 04:53:57;;;;;;;28.13;16.30;;;;;;;7.51;90.84;99655.66;5070864;28;20189;-75
2022/01/04 04:56:23;;;;;;;27.90;16.53;;;;;;;7.51;91.13;99650.56;5070734;28;20904;-74
2022/01/04 04:58:48;;;;;;;30.03;16.73;;;;;;;7.48;91.40;99650.53;5070654;28;20677;-74
2022/01/04 05:01:13;;;;;;;25.63;17.40;;;;;;;7.49;92.07;99652.25;5070772;28;20633;-74
2022/01/04 05:03:39;;;;;;;28.47;17.40;;;;;;;7.50;91.72;99656.50;5070542;28;20189;-74
2022/01/04 05:06:04;;;;;;;32.00;16.97;;;;;;;7.49;92.03;99648.84;5070411;28;20228;-74
2022/01/04 05:08:29;;;;;;;29.53;17.97;;;;;;;7.51;90.79;99645.47;5050937;28;20201;-75
2022/01/04 05:10:57;;;;;;;29.57;17.07;;;;;;;7.45;90.97;99631.81;5049372;28;20199;-74
2022/01/04 05:13:22;;;;;;;31.57;17.80;;;;;;;7.47;91.13;99641.16;5050492;28;20185;-74
2022/01/04 05:15:48;;;;;;;30.73;16.77;;;;;;;7.47;91.31;99645.44;5049372;28;20197;-75
2022/01/04 05:18:13;;;;;;;30.00;17.03;;;;;;;7.42;91.45;99630.06;5048892;28;20202;-75
2022/01/04 05:20:38;;;;;;;27.77;16.70;;;;;;;7.49;91.35;99638.66;5050428;28;20178;-74
2022/01/04 05:23:04;;;;;;;29.87;16.73;;;;;;;7.42;91.25;99635.16;5050435;28;20197;-74
2022/01/04 05:25:29;;;;;;;28.83;18.47;;;;;;;7.38;92.18;99632.59;5049458;28;20315;-74
2022/01/04 05:27:54;;;;;;;30.63;17.97;;;;;;;7.34;91.75;99623.19;5049111;28;20201;-74
2022/01/04 05:30:19;;;;;;;32.03;17.80;;;;;;;7.36;91.50;99624.91;5050233;28;20319;-74
2022/01/04 05:32:45;;;;;;;32.33;17.17;;;;;;;7.34;91.46;99623.19;5049073;28;20182;-75
2022/01/04 05:35:10;;;;;;;29.67;17.43;;;;;;;7.33;91.54;99613.84;5048188;28;20208;-74
2022/01/04 05:37:35;;;;;;;30.63;17.83;;;;;;;7.37;92.47;99608.81;5048821;28;20193;-74
2022/01/04 05:40:01;;;;;;;32.63;17.97;;;;;;;7.42;91.58;99601.22;5049877;28;20194;-74
2022/01/04 05:42:26;;;;;;;33.80;18.27;;;;;;;7.42;92.44;99598.69;5067694;28;20208;-74
2022/01/04 05:44:51;;;;;;;35.23;18.20;;;;;;;7.42;92.25;99602.06;5069842;28;20204;-74
2022/01/04 05:47:17;;;;;;;33.27;19.27;;;;;;;7.48;92.28;99602.16;5069913;28;20193;-75
2022/01/04 05:49:42;;;;;;;34.30;17.57;;;;;;;7.47;91.86;99597.88;5069546;28;20252;-74
2022/01/04 05:52:07;;;;;;;38.37;19.77;;;;;;;7.51;91.34;99594.53;5069642;28;20189;-74
2022/01/04 05:54:33;;;;;;;34.77;18.83;;;;;;;7.51;91.75;99597.09;5069562;28;20204;-75
2022/01/04 05:56:58;;;;;;;31.70;18.73;;;;;;;7.55;91.40;99603.09;5069721;28;20224;-74
2022/01/04 05:59:24;;;;;;;31.03;18.63;;;;;;;7.52;92.05;99597.94;5049129;28;20201;-74
2022/01/04 06:01:49;;;;;;;34.37;19.17;;;;;;;7.48;92.38;99597.06;5049625;28;20189;-74
2022/01/04 06:04:14;;;;;;;34.60;19.93;;;;;;;7.46;92.45;99600.44;5049728;28;20193;-74
2022/01/04 06:06:41;;;;;;;30.53;18.47;;;;;;;7.45;92.28;99596.16;5048058;28;20217;-75
2022/01/04 06:09:08;;;;;;;30.67;19.03;;;;;;;7.43;91.90;99585.97;5049430;28;20268;-74
2022/01/04 06:16:59;;;;;;;33.10;18.17;;;;;;;7.37;92.52;99574.88;5049506;28;20300;-74
2022/01/04 06:19:24;;;;;;;32.10;18.90;;;;;;;7.34;92.68;99573.13;5049234;28;20647;-74
2022/01/04 06:21:49;;;;;;;35.23;19.13;;;;;;;7.34;92.60;99570.59;5049390;28;20196;-75
2022/01/04 06:24:14;;;;;;;33.57;20.50;;;;;;;7.35;92.74;99569.75;5047920;28;20197;-74
2022/01/04 06:26:40;;;;;;;35.60;18.80;;;;;;;7.37;92.08;99569.78;5047975;28;20228;-74
2022/01/04 06:29:07;;;;;;;34.80;19.40;;;;;;;7.36;92.75;99560.41;5049202;28;20186;-74
2022/01/04 06:31:32;;;;;;;37.13;19.50;;;;;;;7.37;92.57;99554.50;5049849;28;20694;-74
2022/01/04 06:33:58;;;;;;;33.23;19.33;;;;;;;7.37;92.24;99562.97;5049383;28;20273;-74
2022/01/04 06:36:23;;;;;;;34.83;20.73;;;;;;;7.38;92.46;99562.13;5062713;28;20207;-74
2022/01/04 06:38:49;;;;;;;38.83;19.83;;;;;;;7.38;92.86;99557.03;5089547;28;20195;-74
2022/01/04 06:41:14;;;;;;;34.30;20.20;;;;;;;7.42;93.11;99558.78;5089754;28;20188;-75
2022/01/04 06:43:40;;;;;;;38.87;21.03;;;;;;;7.42;93.56;99551.13;5089536;28;20185;-74
2022/01/04 06:46:05;;;;;;;36.73;20.30;;;;;;;7.42;92.38;99551.13;5088066;28;20220;-74
2022/01/04 06:48:30;;;;;;;40.23;21.87;;;;;;;7.44;92.70;99566.44;5086020;28;20193;-74
2022/01/04 06:50:57;;;;;;;33.97;21.03;;;;;;;7.42;92.45;99565.59;5053278;28;20796;-74
2022/01/04 06:53:22;;;;;;;37.63;21.17;;;;;;;7.42;92.44;99546.06;5068730;28;20188;-74
2022/01/04 06:55:50;;;;;;;34.87;20.43;;;;;;;7.41;93.08;99538.41;5071756;28;20205;-74
2022/01/04 06:58:16;;;;;;;32.93;20.27;;;;;;;7.43;92.79;99537.59;5072893;28;20703;-74
2022/01/04 07:00:41;;;;;;;32.77;21.07;;;;;;;7.45;93.10;99535.03;5073027;28;20250;-74
2022/01/04 07:03:07;;;;;;;33.70;20.53;;;;;;;7.47;92.80;99533.38;5073016;28;20660;-74
2022/01/04 07:05:35;;;;;;;34.27;21.17;;;;;;;7.50;92.86;99528.31;5069296;28;20887;-74
2022/01/04 07:08:01;;;;;;;32.90;19.70;;;;;;;7.49;93.22;99530.00;5051307;28;20213;-74
2022/01/04 07:10:26;;;;;;;36.60;21.10;;;;;;;7.49;92.69;99530.00;5052902;28;20174;-74
2022/01/04 07:12:51;;;;;;;35.23;21.67;;;;;;;7.48;93.34;99524.91;5051607;28;20186;-74
2022/01/04 07:15:17;;;;;;;33.53;20.33;;;;;;;7.45;93.50;99528.28;5051396;28;20206;-74
2022/01/04 07:17:42;;;;;;;33.87;19.73;;;;;;;7.49;92.47;99530.00;5051522;28;20268;-74
2022/01/04 07:20:08;;;;;;;37.57;19.70;;;;;;;7.45;93.41;99525.72;5052581;28;20273;-74
2022/01/04 07:22:34;;;;;;;38.33;21.30;;;;;;;7.48;92.71;99524.91;5053226;28;20673;-74
2022/01/04 07:24:59;;;;;;;31.40;18.97;;;;;;;7.47;93.42;99518.09;5052302;28;20201;-74
2022/01/04 07:27:24;;;;;;;39.60;20.27;;;;;;;7.49;93.03;99517.28;5052453;28;20681;-74
2022/01/04 07:29:50;;;;;;;36.13;21.27;;;;;;;7.49;93.20;99517.28;5052285;28;20661;-75
2022/01/04 07:32:15;;;;;;;34.37;19.73;;;;;;;7.47;92.48;99513.84;5052411;28;20888;-75
2022/01/04 07:34:40;;;;;;;31.07;18.77;;;;;;;7.50;92.68;99521.53;5052594;28;20190;-75
2022/01/04 07:37:06;;;;;;;36.00;20.57;;;;;;;7.54;92.80;99519.84;5051372;28;20213;-74
2022/01/04 07:39:31;;;;;;;35.73;20.93;;;;;;;7.55;93.13;99522.44;5052714;28;20285;-74
2022/01/04 07:41:57;;;;;;;33.50;19.27;;;;;;;7.58;92.69;99517.38;5050845;28;20198;-74
2022/01/04 07:44:23;;;;;;;33.97;19.77;;;;;;;7.62;92.82;99515.69;5018609;28;20225;-74
2022/01/04 07:46:48;;;;;;;35.63;19.13;;;;;;;7.63;92.56;99508.06;5041735;28;20606;-75
2022/01/04 07:49:15;;;;;;;30.37;19.10;;;;;;;7.66;92.51;99514.91;5038746;28;20269;-75
2022/01/04 07:51:41;;;;;;;30.93;18.93;;;;;;;7.66;92.13;99509.78;5038740;28;20174;-75
2022/01/04 07:54:06;;;;;;;29.47;20.37;;;;;;;7.67;92.50;99514.91;5030838;28;20216;-74
2022/01/04 07:56:32;;;;;;;32.73;19.83;;;;;;;7.66;92.85;99510.66;5028993;28;20213;-74
2022/01/04 07:59:00;;;;;;;32.73;20.40;;;;;;;7.68;92.17;99508.97;5018681;28;20247;-75
2022/01/04 08:01:28;;;;;;;35.40;20.70;;;;;;;7.68;91.98;99506.41;5045121;28;20281;-75
2022/01/04 08:03:53;;;;;;;33.40;20.83;;;;;;;7.68;92.43;99508.09;5050891;28;20194;-75
2022/01/04 08:06:18;;;;;;;36.70;21.93;;;;;;;7.70;92.19;99506.44;5051784;28;20214;-75
2022/01/04 08:08:44;;;;;;;33.60;20.80;;;;;;;7.71;91.99;99500.50;5051581;28;20221;-75
2022/01/04 08:11:09;;;;;;;32.17;20.83;;;;;;;7.74;92.67;99501.38;5051535;28;20193;-75
2022/01/04 08:13:35;;;;;;;29.87;19.87;;;;;;;7.73;92.09;99497.13;5029213;28;20205;-75
2022/01/04 08:16:00;;;;;;;33.73;20.13;;;;;;;7.74;92.08;99492.91;5031529;28;20242;-75
2022/01/04 08:18:25;;;;;;;33.93;20.40;;;;;;;7.72;92.00;99479.28;5031452;28;20183;-75
2022/01/04 08:20:56;;;;;;;33.57;20.33;;;;;;;7.72;92.18;99481.81;5046927;28;20717;-75
2022/01/04 08:23:22;;;;;;;35.53;19.33;;;;;;;7.74;92.48;99478.44;5031492;28;20179;-75
2022/01/04 08:25:47;;;;;;;39.50;21.77;;;;;;;7.78;91.97;99474.25;5031101;28;20222;-75
2022/01/04 08:28:13;;;;;;;31.20;19.73;;;;;;;7.79;92.09;99471.69;5031145;28;20255;-75
2022/01/04 08:30:38;;;;;;;35.47;20.77;;;;;;;7.80;92.33;99462.38;5026860;28;20199;-75
2022/01/04 08:33:03;;;;;;;30.43;20.80;;;;;;;7.80;91.71;99465.78;5011540;28;20194;-75
2022/01/04 08:35:29;;;;;;;31.73;20.73;;;;;;;7.80;92.41;99470.88;5011436;28;20205;-75
2022/01/04 08:37:54;;;;;;;31.43;20.80;;;;;;;7.83;92.39;99459.84;5017145;28;20190;-75
2022/01/04 08:40:20;;;;;;;34.73;20.77;;;;;;;7.82;91.52;99461.53;5049558;28;20196;-74
2022/01/04 08:42:45;;;;;;;32.80;20.83;;;;;;;7.83;91.54;99454.75;5050371;28;20257;-74
2022/01/04 08:45:11;;;;;;;29.40;20.10;;;;;;;7.82;91.75;99456.44;5041935;28;20233;-74
2022/01/04 08:47:37;;;;;;;34.40;21.37;;;;;;;7.87;91.15;99454.78;5046630;28;20206;-75
2022/01/04 08:50:06;;;;;;;31.93;20.50;;;;;;;7.86;91.84;99445.44;5068587;28;20670;-74
2022/01/04 08:52:31;;;;;;;35.00;20.23;;;;;;;7.87;92.33;99441.19;5057391;28;20189;-75
2022/01/04 08:54:56;;;;;;;35.80;21.57;;;;;;;7.89;91.93;99439.50;5050717;28;20178;-75
2022/01/04 08:57:23;;;;;;;33.07;21.67;;;;;;;7.89;92.01;99434.41;5050650;28;20186;-74
2022/01/04 08:59:49;;;;;;;36.03;21.43;;;;;;;7.90;91.58;99428.47;5050469;28;20613;-75
2022/01/04 09:02:14;;;;;;;31.23;22.13;;;;;;;7.92;91.62;99435.28;5068466;28;20280;-75
2022/01/04 09:04:39;;;;;;;31.43;20.70;;;;;;;7.92;91.68;99431.88;5064011;28;20202;-74
2022/01/04 09:07:05;;;;;;;30.50;21.17;;;;;;;7.94;92.03;99425.97;5050651;28;20301;-74
2022/01/04 09:09:30;;;;;;;33.70;21.87;;;;;;;7.96;91.27;99429.34;5049642;28;20225;-74
2022/01/04 09:11:56;;;;;;;34.87;21.07;;;;;;;7.98;91.41;99427.69;5050597;28;20221;-75
2022/01/04 09:14:25;;;;;;;33.07;21.20;;;;;;;8.01;91.25;99427.69;5045411;28;20221;-74
2022/01/04 09:19:36;;;;;;;29.40;20.70;;;;;;;8.03;91.12;99413.28;5049782;28;20651;-74
2022/01/04 09:22:03;;;;;;;31.73;20.83;;;;;;;8.03;91.00;99405.63;5049123;28;20196;-75
2022/01/04 09:24:29;;;;;;;30.57;21.43;;;;;;;8.04;91.80;99404.78;5049647;28;20188;-74
2022/01/04 09:26:54;;;;;;;30.83;20.83;;;;;;;8.02;90.84;99401.34;5049655;28;20205;-74
2022/01/04 09:29:20;;;;;;;28.47;20.50;;;;;;;8.03;91.73;99390.34;5055362;28;20787;-74
2022/01/04 09:31:50;;;;;;;30.37;21.47;;;;;;;8.04;91.79;99402.22;5035144;28;20198;-75
2022/01/04 09:34:17;;;;;;;31.60;21.50;;;;;;;8.06;91.04;99402.25;5029786;28;20186;-74
2022/01/04 09:36:43;;;;;;;28.50;21.33;;;;;;;8.08;90.99;99403.09;5029654;28;20206;-75
2022/01/04 09:39:15;;;;;;;32.07;20.83;;;;;;;8.11;90.42;99398.84;5034255;28;20217;-76
2022/01/04 09:41:42;;;;;;;34.93;21.07;;;;;;;8.12;90.76;99397.19;5029776;28;20232;-75
2022/01/04 09:44:08;;;;;;;33.30;21.63;;;;;;;8.17;91.05;99386.16;5020401;28;20733;-76
2022/01/04 09:46:34;;;;;;;26.27;20.23;;;;;;;8.17;91.05;99393.81;5056227;28;20210;-75
2022/01/04 09:48:59;;;;;;;32.07;20.67;;;;;;;8.20;91.13;99400.63;5048061;28;20200;-75
2022/01/04 09:51:27;;;;;;;27.27;19.27;;;;;;;8.21;90.04;99392.16;5058310;28;20189;-75
2022/01/04 09:53:52;;;;;;;31.40;20.63;;;;;;;8.21;90.39;99393.00;5049802;28;20202;-75
2022/01/04 09:56:17;;;;;;;28.20;20.10;;;;;;;8.23;91.28;99391.31;5049689;28;20224;-76
2022/01/04 09:58:43;;;;;;;30.17;20.60;;;;;;;8.24;91.06;99399.84;5049656;28;20189;-76
2022/01/04 10:01:25;;;;;;;29.50;20.87;;;;;;;8.22;91.13;99402.38;5049748;28;20719;-76
2022/01/04 10:03:51;;;;;;;34.93;20.83;;;;;;;8.20;90.87;99408.28;5049635;28;20193;-75
2022/01/04 10:06:17;;;;;;;31.73;20.93;;;;;;;8.21;91.22;99408.28;5048251;28;20213;-75
2022/01/04 10:08:57;;;;;;;31.50;20.23;;;;;;;8.17;91.81;99409.13;5049421;28;20196;-75
2022/01/04 10:11:48;;;;;;;31.90;22.30;;;;;;;8.14;92.25;99400.56;5048253;28;20631;-75
2022/01/04 10:14:31;;;;;;;35.17;21.63;;;;;;;8.16;92.14;99396.34;5048629;28;20193;-75
2022/01/04 10:17:03;;;;;;;32.53;20.60;;;;;;;8.41;92.15;99390.53;5049442;28;20280;-76
2022/01/04 10:19:32;;;;;;;30.20;20.83;;;;;;;8.40;92.22;99388.84;5049103;28;20198;-75
2022/01/04 10:22:34;;;;;;;30.00;20.23;;;;;;;8.24;92.25;99395.56;5041646;28;20231;-74
2022/01/04 10:25:03;;;;;;;28.20;19.80;;;;;;;8.18;92.05;99392.97;5042631;28;20213;-75
2022/01/04 10:27:43;;;;;;;31.27;21.00;;;;;;;8.15;92.12;99387.00;5049016;28;20201;-75
2022/01/04 10:30:20;;;;;;;32.47;21.47;;;;;;;8.16;92.10;99388.69;5039899;28;20205;-75
2022/01/04 10:32:51;;;;;;;30.67;20.43;;;;;;;8.19;92.14;99381.91;5027493;28;20240;-76
2022/01/04 10:35:37;;;;;;;30.53;21.43;;;;;;;8.23;91.77;99385.34;5028804;28;20206;-75
2022/01/04 10:38:26;;;;;;;28.53;19.97;;;;;;;8.27;91.17;99376.88;5033279;28;20182;-75
2022/01/04 10:41:02;;;;;;;30.53;20.87;;;;;;;8.28;90.65;99378.56;5045397;28;20231;-74
2022/01/04 10:43:39;;;;;;;27.07;19.53;;;;;;;8.31;90.57;99371.81;5048506;28;20201;-74
2022/01/04 10:46:05;;;;;;;32.17;20.10;;;;;;;8.34;91.17;99351.41;5034436;28;20237;-74
2022/01/04 10:48:34;;;;;;;27.90;19.83;;;;;;;8.33;91.23;99347.16;5028763;28;20256;-74
2022/01/04 10:51:10;;;;;;;28.43;19.23;;;;;;;8.31;90.12;99345.44;5028108;28;20194;-74
2022/01/04 10:53:37;;;;;;;27.30;19.73;;;;;;;8.30;90.44;99346.31;5047206;28;20285;-74
2022/01/04 10:56:09;;;;;;;30.37;21.23;;;;;;;8.29;91.30;99344.63;5048423;28;20205;-75
2022/01/04 10:58:46;;;;;;;27.80;19.37;;;;;;;8.26;90.46;99342.03;5047080;28;20201;-75
2022/01/04 11:01:17;;;;;;;28.73;20.13;;;;;;;8.29;90.11;99331.88;5048471;28;20225;-75
2022/01/04 11:03:47;;;;;;;31.87;19.60;;;;;;;8.38;90.80;99326.78;5048219;28;20545;-75
2022/01/04 11:06:13;;;;;;;28.13;19.33;;;;;;;8.41;90.38;99317.44;5047203;28;20687;-75
2022/01/04 11:08:39;;;;;;;25.57;18.80;;;;;;;8.41;89.62;99312.34;5048326;28;20273;-74
2022/01/04 11:11:05;;;;;;;25.43;18.53;;;;;;;8.48;90.07;99296.19;5046937;28;20251;-75
2022/01/04 11:13:30;;;;;;;23.10;17.30;;;;;;;8.46;89.51;99287.72;5047153;28;20919;-75
2022/01/04 11:15:57;;;;;;;24.07;19.23;;;;;;;8.45;89.54;99288.56;5047348;28;20275;-75
2022/01/04 11:18:23;;;;;;;25.87;18.47;;;;;;;8.57;89.03;99286.03;5047844;28;20194;-75
2022/01/04 11:20:50;;;;;;;24.30;17.40;;;;;;;8.55;88.39;99277.53;5046829;28;20201;-75
2022/01/04 11:23:16;;;;;;;24.40;17.00;;;;;;;8.57;88.62;99273.25;5048583;28;20240;-74
2022/01/04 11:25:44;;;;;;;28.63;17.90;;;;;;;8.57;89.38;99285.19;5048907;28;20589;-75
2022/01/04 11:28:14;;;;;;;26.13;17.83;;;;;;;8.56;88.54;99281.78;5048118;28;20186;-74
2022/01/04 11:30:46;;;;;;;23.30;15.80;;;;;;;8.55;88.93;99274.97;5048678;28;20189;-74
2022/01/04 11:33:37;;;;;;;24.63;16.77;;;;;;;8.64;89.69;99271.56;5049947;28;20201;-74